Time;durP1;ratioP1;P1;durP2;ratioP2;P2;SDS_P1;SDS_P2;PMS_P1;PMS_P2;Temp;Humidity;BMP_temperature;BMP_pressure;BME280_temperature;BME280_humidity;BME280_pressure;Samples;Min_cycle;Max_cycle;Signal;HPM_P1;HPM_P2
2021/07/05 00:00:01;;;;;;;3.85;1.60;;;15.60;91.70;;;;;;5109505;28;20141;-81
2021/07/05 00:02:26;;;;;;;9.93;1.80;;;15.60;91.80;;;;;;5109683;28;20124;-81
2021/07/05 00:04:52;;;;;;;2.55;1.40;;;15.60;91.90;;;;;;5110429;28;20228;-81
2021/07/05 00:07:20;;;;;;;5.97;1.80;;;15.50;92.00;;;;;;5109785;28;20028;-81
2021/07/05 00:09:46;;;;;;;2.10;1.90;;;15.40;92.10;;;;;;5109121;28;20196;-81
2021/07/05 00:12:12;;;;;;;4.85;2.20;;;15.40;92.10;;;;;;5110716;28;20484;-80
2021/07/05 00:14:38;;;;;;;5.78;1.65;;;15.40;92.20;;;;;;5109957;28;20066;-78
2021/07/05 00:17:04;;;;;;;3.15;2.05;;;15.40;92.20;;;;;;5092570;28;20063;-79
2021/07/05 00:19:29;;;;;;;3.97;1.70;;;15.40;92.30;;;;;;5109395;28;20031;-79
2021/07/05 00:21:56;;;;;;;2.75;1.33;;;15.40;92.30;;;;;;5109694;28;20164;-78
2021/07/05 00:24:22;;;;;;;8.05;1.98;;;15.30;92.30;;;;;;5113031;28;20051;-78
2021/07/05 00:26:48;;;;;;;3.78;1.17;;;15.40;92.30;;;;;;5112560;28;20379;-80
2021/07/05 00:29:14;;;;;;;3.42;1.10;;;15.40;92.30;;;;;;5113763;28;20450;-81
2021/07/05 00:31:40;;;;;;;2.50;1.20;;;15.40;92.30;;;;;;5112453;28;20035;-81
2021/07/05 00:34:06;;;;;;;2.58;1.33;;;15.50;92.20;;;;;;5113070;28;20088;-81
2021/07/05 00:36:32;;;;;;;3.78;1.33;;;15.50;92.20;;;;;;5113195;28;20027;-82
2021/07/05 00:38:57;;;;;;;8.00;1.10;;;15.60;92.20;;;;;;5112742;28;20016;-81
2021/07/05 00:41:24;;;;;;;3.03;1.10;;;15.60;92.10;;;;;;5113016;28;20086;-80
2021/07/05 00:43:49;;;;;;;5.75;1.48;;;15.70;92.10;;;;;;5112845;28;20034;-82
2021/07/05 00:46:15;;;;;;;4.60;1.13;;;15.60;92.00;;;;;;5113305;28;20502;-81
2021/07/05 00:48:41;;;;;;;3.67;1.00;;;15.60;92.00;;;;;;5112712;28;20519;-79
2021/07/05 00:51:06;;;;;;;4.05;0.90;;;15.60;92.00;;;;;;5096628;28;20035;-81
2021/07/05 00:53:32;;;;;;;3.40;0.90;;;15.60;92.00;;;;;;5113228;28;20114;-80
2021/07/05 00:55:58;;;;;;;4.55;1.42;;;15.60;92.00;;;;;;5095618;28;20031;-84
2021/07/05 00:58:24;;;;;;;4.32;1.23;;;15.50;92.10;;;;;;5111991;28;20411;-83
2021/07/05 01:00:50;;;;;;;2.30;0.95;;;15.50;92.10;;;;;;5113258;28;20174;-80
2021/07/05 01:03:16;;;;;;;3.20;1.15;;;15.40;92.10;;;;;;5113046;28;20031;-81
2021/07/05 01:05:41;;;;;;;1.58;1.00;;;15.40;92.20;;;;;;5112244;28;20106;-79
2021/07/05 01:08:07;;;;;;;5.07;1.50;;;15.40;92.20;;;;;;5112791;28;20428;-81
2021/07/05 01:10:34;;;;;;;2.65;1.33;;;15.30;92.30;;;;;;5114097;28;20039;-80
2021/07/05 01:12:59;;;;;;;5.88;0.90;;;15.30;92.40;;;;;;5111878;28;20042;-80
2021/07/05 01:15:28;;;;;;;2.03;0.85;;;15.30;92.40;;;;;;5112464;28;20027;-81
2021/07/05 01:17:55;;;;;;;3.05;0.70;;;15.30;92.40;;;;;;5111648;28;20024;-80
2021/07/05 01:20:25;;;;;;;1.67;0.80;;;15.40;92.40;;;;;;5095694;28;20035;-80
2021/07/05 01:22:51;;;;;;;2.03;0.90;;;15.40;92.40;;;;;;5111520;28;20039;-80
2021/07/05 01:25:20;;;;;;;4.07;0.90;;;15.40;92.40;;;;;;5112100;28;20027;-80
2021/07/05 01:27:46;;;;;;;2.65;1.40;;;15.40;92.40;;;;;;5111467;28;20032;-79
2021/07/05 01:30:16;;;;;;;2.95;0.93;;;15.50;92.40;;;;;;5111981;28;20023;-80
2021/07/05 01:32:42;;;;;;;2.95;0.88;;;15.50;92.30;;;;;;5112468;28;20107;-80
2021/07/05 01:35:08;;;;;;;2.15;0.95;;;15.50;92.30;;;;;;5111446;28;20104;-80
2021/07/05 01:37:34;;;;;;;3.15;1.48;;;15.50;92.30;;;;;;5098899;28;20028;-80
2021/07/05 01:40:00;;;;;;;7.40;2.17;;;15.50;92.20;;;;;;5116101;27;20031;-81
2021/07/05 01:42:26;;;;;;;2.28;1.40;;;15.50;92.20;;;;;;5117735;28;20131;-81
2021/07/05 01:44:52;;;;;;;6.75;1.35;;;15.40;92.20;;;;;;5114996;28;20491;-80
2021/07/05 01:47:18;;;;;;;2.90;1.20;;;15.40;92.30;;;;;;5116885;28;20061;-80
2021/07/05 01:49:46;;;;;;;3.38;1.40;;;15.40;92.30;;;;;;5113768;28;20137;-81
2021/07/05 01:52:12;;;;;;;2.63;1.55;;;15.50;92.30;;;;;;5094543;28;20020;-80
2021/07/05 01:54:39;;;;;;;3.42;1.30;;;15.40;92.30;;;;;;5113067;28;20514;-80
2021/07/05 01:57:05;;;;;;;2.58;1.42;;;15.50;92.30;;;;;;5112897;28;20459;-81
2021/07/05 01:59:31;;;;;;;3.53;1.42;;;15.50;92.30;;;;;;5116182;28;20019;-80
2021/07/05 02:01:57;;;;;;;3.85;1.70;;;15.50;92.30;;;;;;5117284;28;20476;-81
2021/07/05 02:04:26;;;;;;;4.60;1.60;;;15.60;92.30;;;;;;5100560;28;20038;-80
2021/07/05 02:06:52;;;;;;;2.45;1.38;;;15.60;92.30;;;;;;5115255;28;20084;-79
2021/07/05 02:09:18;;;;;;;3.92;1.55;;;15.60;92.30;;;;;;5115028;28;20031;-80
2021/07/05 02:11:43;;;;;;;1.90;1.30;;;15.70;92.20;;;;;;5116881;28;20031;-80
2021/07/05 02:14:09;;;;;;;3.03;1.50;;;15.70;92.20;;;;;;5116658;28;20437;-81
2021/07/05 02:16:35;;;;;;;3.13;1.30;;;15.80;92.20;;;;;;5115997;28;20028;-79
2021/07/05 02:19:03;;;;;;;2.53;1.40;;;15.90;92.10;;;;;;5114570;28;20059;-80
2021/07/05 02:21:28;;;;;;;4.88;1.10;;;16.00;92.10;;;;;;5114291;28;20055;-79
2021/07/05 02:23:54;;;;;;;3.15;0.93;;;16.00;92.00;;;;;;5105986;28;20034;-78
2021/07/05 02:26:20;;;;;;;1.92;0.80;;;16.10;91.90;;;;;;5103938;28;20439;-79
2021/07/05 02:28:46;;;;;;;4.82;1.10;;;16.10;91.80;;;;;;5120343;28;20027;-81
2021/07/05 02:31:12;;;;;;;4.30;1.35;;;16.20;91.80;;;;;;5115246;28;20038;-80
2021/07/05 02:33:37;;;;;;;2.80;1.33;;;16.30;91.70;;;;;;5094685;28;20034;-80
2021/07/05 02:36:08;;;;;;;5.43;1.10;;;16.30;91.60;;;;;;5076679;28;20028;-80
2021/07/05 02:38:34;;;;;;;3.30;1.20;;;16.40;91.50;;;;;;5113006;28;20030;-78
2021/07/05 02:41:02;;;;;;;5.20;1.30;;;16.40;91.50;;;;;;5121979;28;20057;-80
2021/07/05 02:43:28;;;;;;;2.70;1.05;;;16.50;91.40;;;;;;5117678;28;20154;-79
2021/07/05 02:45:57;;;;;;;3.38;1.50;;;16.50;91.40;;;;;;5095748;28;20391;-79
2021/07/05 02:48:25;;;;;;;2.38;2.13;;;16.50;91.40;;;;;;5110418;28;20106;-80
2021/07/05 02:50:54;;;;;;;4.78;3.58;;;16.60;91.30;;;;;;5112317;28;20031;-79
2021/07/05 02:53:20;;;;;;;4.43;3.72;;;16.60;91.30;;;;;;5109803;28;20398;-79
2021/07/05 02:55:46;;;;;;;7.28;6.50;;;16.60;91.30;;;;;;5110764;28;20031;-78
2021/07/05 02:58:11;;;;;;;9.63;6.97;;;16.60;91.30;;;;;;5093390;28;20082;-77
2021/07/05 03:00:40;;;;;;;11.70;7.53;;;16.60;91.30;;;;;;5110876;28;20039;-77
2021/07/05 03:03:07;;;;;;;7.72;5.40;;;16.60;91.40;;;;;;5111602;28;20046;-78
2021/07/05 03:05:33;;;;;;;9.32;4.90;;;16.50;91.20;;;;;;5093988;28;20024;-78
2021/07/05 03:07:59;;;;;;;7.07;4.47;;;16.40;91.10;;;;;;5110855;28;20026;-78
2021/07/05 03:10:37;;;;;;;6.32;3.70;;;16.20;91.00;;;;;;5110323;28;20032;-79
2021/07/05 03:13:04;;;;;;;6.18;3.50;;;16.10;91.00;;;;;;5111953;28;20055;-83
2021/07/05 03:15:30;;;;;;;6.95;3.50;;;16.10;90.90;;;;;;5111484;28;20054;-80
2021/07/05 03:17:56;;;;;;;5.80;2.38;;;15.90;90.90;;;;;;5112930;28;20106;-80
2021/07/05 03:20:28;;;;;;;5.55;2.20;;;15.90;90.80;;;;;;5117455;28;20078;-80
2021/07/05 03:22:55;;;;;;;3.15;1.90;;;15.80;90.80;;;;;;5121943;28;20452;-80
2021/07/05 03:25:24;;;;;;;4.32;1.80;;;15.80;90.80;;;;;;5099798;28;20055;-81
2021/07/05 03:27:51;;;;;;;4.75;2.38;;;15.70;90.80;;;;;;5116744;28;20034;-79
2021/07/05 03:30:18;;;;;;;3.05;1.70;;;15.70;90.80;;;;;;5112404;28;20019;-80
2021/07/05 03:32:46;;;;;;;4.78;1.48;;;15.60;90.70;;;;;;5112132;28;20039;-81
2021/07/05 03:35:13;;;;;;;4.88;1.70;;;15.60;90.70;;;;;;5093032;28;20038;-80
2021/07/05 03:37:39;;;;;;;3.65;1.50;;;15.50;90.80;;;;;;5110420;28;20034;-80
2021/07/05 03:40:07;;;;;;;4.18;1.40;;;15.40;90.70;;;;;;5092530;28;20036;-80
2021/07/05 03:42:33;;;;;;;3.63;1.20;;;15.50;90.80;;;;;;5110663;28;20055;-79
2021/07/05 03:45:00;;;;;;;2.92;1.45;;;15.50;90.90;;;;;;5109933;28;20035;-79
2021/07/05 03:47:26;;;;;;;3.88;1.58;;;15.50;90.80;;;;;;5109287;28;20198;-80
2021/07/05 03:49:52;;;;;;;3.83;1.50;;;15.40;90.80;;;;;;5110257;28;20459;-80
2021/07/05 03:52:18;;;;;;;4.00;1.52;;;15.40;90.80;;;;;;5092527;28;20126;-80
2021/07/05 03:54:44;;;;;;;3.95;1.50;;;15.40;90.80;;;;;;5095517;28;20028;-81
2021/07/05 03:57:21;;;;;;;3.42;1.55;;;15.40;90.80;;;;;;5097116;28;20027;-81
2021/07/05 03:59:55;;;;;;;4.47;1.90;;;15.40;90.90;;;;;;5117488;27;20050;-81
2021/07/05 04:02:21;;;;;;;3.63;2.03;;;15.50;90.90;;;;;;5114102;28;20043;-81
2021/07/05 04:04:48;;;;;;;3.80;1.90;;;15.50;90.90;;;;;;5082743;28;20123;-81
2021/07/05 04:07:14;;;;;;;3.88;1.88;;;15.60;90.90;;;;;;5115457;28;20023;-81
2021/07/05 04:09:41;;;;;;;4.22;1.70;;;15.60;90.90;;;;;;5114373;28;20119;-81
2021/07/05 04:12:08;;;;;;;5.40;1.95;;;15.60;90.80;;;;;;5114230;28;20031;-81
2021/07/05 04:14:34;;;;;;;6.03;2.22;;;15.60;90.80;;;;;;5113690;28;20039;-81
2021/07/05 04:17:00;;;;;;;3.88;1.70;;;15.70;90.80;;;;;;5096742;28;20384;-81
2021/07/05 04:19:26;;;;;;;3.42;1.90;;;15.70;90.70;;;;;;5096153;28;20032;-81
2021/07/05 04:21:51;;;;;;;4.03;2.17;;;15.60;90.70;;;;;;5096620;28;20031;-81
2021/07/05 04:24:17;;;;;;;5.82;1.98;;;15.60;90.70;;;;;;5095810;28;20093;-81
2021/07/05 04:26:43;;;;;;;5.68;2.00;;;15.60;90.70;;;;;;5114841;28;20046;-81
2021/07/05 04:29:09;;;;;;;4.93;2.35;;;15.60;90.80;;;;;;5115314;28;20035;-81
2021/07/05 04:31:34;;;;;;;7.18;2.70;;;15.60;90.80;;;;;;5114116;28;20189;-82
2021/07/05 04:34:00;;;;;;;5.97;2.65;;;15.60;90.80;;;;;;5115251;28;20099;-81
2021/07/05 04:36:26;;;;;;;4.38;2.53;;;15.60;90.80;;;;;;5095831;28;20467;-82
2021/07/05 04:38:51;;;;;;;4.32;2.40;;;15.60;90.70;;;;;;5096838;28;20030;-82
2021/07/05 04:41:17;;;;;;;6.65;2.42;;;15.60;90.70;;;;;;5078876;28;20039;-81
2021/07/05 04:43:43;;;;;;;6.07;2.97;;;15.60;90.70;;;;;;5079806;28;20523;-82
2021/07/05 04:46:08;;;;;;;6.47;2.90;;;15.60;90.70;;;;;;5108411;28;20409;-82
2021/07/05 04:48:34;;;;;;;6.20;2.33;;;15.60;90.70;;;;;;5096186;28;20455;-81
2021/07/05 04:51:02;;;;;;;7.80;2.60;;;15.60;90.70;;;;;;5113502;28;20473;-81
2021/07/05 04:53:28;;;;;;;7.60;3.08;;;15.60;90.70;;;;;;5112590;28;20020;-81
2021/07/05 04:55:54;;;;;;;6.35;2.95;;;15.60;90.60;;;;;;5113124;28;20382;-81
2021/07/05 04:58:21;;;;;;;5.72;2.88;;;15.70;90.70;;;;;;5095872;28;20379;-81
2021/07/05 05:00:47;;;;;;;6.93;2.83;;;15.60;90.60;;;;;;5113087;28;20031;-81
2021/07/05 05:03:13;;;;;;;5.03;3.35;;;15.70;90.60;;;;;;5095726;28;20607;-81
2021/07/05 05:05:41;;;;;;;6.60;2.97;;;15.70;90.60;;;;;;5094776;28;20241;-81
2021/07/05 05:08:08;;;;;;;7.93;3.55;;;15.60;90.60;;;;;;5095716;28;20085;-81
2021/07/05 05:10:34;;;;;;;7.43;3.28;;;15.60;90.60;;;;;;5111786;28;20040;-81
2021/07/05 05:12:59;;;;;;;5.85;3.00;;;15.60;90.60;;;;;;5114474;28;20028;-81
2021/07/05 05:15:25;;;;;;;7.45;3.35;;;15.70;90.70;;;;;;5112035;28;20089;-81
2021/07/05 05:17:51;;;;;;;6.85;2.95;;;15.70;90.60;;;;;;5095818;28;20039;-81
2021/07/05 05:20:18;;;;;;;6.20;3.30;;;15.70;90.60;;;;;;5126087;28;20043;-80
2021/07/05 05:22:44;;;;;;;7.00;3.35;;;15.70;90.60;;;;;;5095188;28;20547;-80
2021/07/05 05:25:10;;;;;;;6.25;3.42;;;15.70;90.50;;;;;;5117476;28;20142;-81
2021/07/05 05:27:37;;;;;;;6.25;3.78;;;15.60;90.50;;;;;;5084883;28;20039;-81
2021/07/05 05:30:05;;;;;;;6.40;3.25;;;15.50;90.60;;;;;;5115988;28;20039;-80
2021/07/05 05:32:30;;;;;;;4.85;3.47;;;15.50;90.60;;;;;;5112162;28;20501;-80
2021/07/05 05:34:56;;;;;;;6.65;3.85;;;15.50;90.70;;;;;;5095356;28;20032;-81
2021/07/05 05:37:22;;;;;;;7.85;4.15;;;15.50;90.70;;;;;;5112114;28;20491;-81
2021/07/05 05:39:47;;;;;;;8.55;4.20;;;15.40;90.60;;;;;;5077927;28;20355;-80
2021/07/05 05:42:13;;;;;;;5.57;2.80;;;15.30;90.70;;;;;;5078048;28;20056;-79
2021/07/05 05:44:39;;;;;;;6.85;3.88;;;15.40;90.90;;;;;;5111330;28;20028;-79
2021/07/05 05:47:05;;;;;;;7.05;3.92;;;15.40;91.00;;;;;;5095353;28;20051;-79
2021/07/05 05:49:30;;;;;;;5.60;3.05;;;15.60;91.00;;;;;;5094478;28;20031;-80
2021/07/05 05:51:56;;;;;;;3.85;2.65;;;15.60;90.90;;;;;;5111707;28;20395;-79
2021/07/05 05:54:21;;;;;;;5.63;3.25;;;15.80;91.00;;;;;;5078049;28;20471;-79
2021/07/05 05:56:52;;;;;;;5.05;2.90;;;15.90;90.90;;;;;;5077675;28;20292;-80
2021/07/05 05:59:18;;;;;;;6.95;2.67;;;16.00;90.80;;;;;;5112263;28;20043;-80
2021/07/05 06:01:49;;;;;;;4.75;2.80;;;16.20;90.70;;;;;;5110845;28;20548;-80
2021/07/05 06:04:15;;;;;;;4.18;2.60;;;16.20;90.50;;;;;;5079545;28;20028;-79
2021/07/05 06:06:40;;;;;;;4.65;2.28;;;16.30;90.40;;;;;;5093969;28;20372;-79
2021/07/05 06:09:06;;;;;;;5.25;2.00;;;16.30;90.30;;;;;;5112048;28;20039;-80
2021/07/05 06:11:32;;;;;;;5.28;2.20;;;16.50;90.20;;;;;;5110963;28;20043;-80
2021/07/05 06:13:58;;;;;;;5.50;2.95;;;16.50;90.10;;;;;;5112067;28;20031;-79
2021/07/05 06:16:25;;;;;;;5.25;2.63;;;16.60;90.00;;;;;;5111588;28;20020;-78
2021/07/05 06:18:50;;;;;;;5.90;2.85;;;16.60;89.90;;;;;;5093851;28;20596;-79
2021/07/05 06:21:19;;;;;;;3.42;2.20;;;16.60;89.70;;;;;;5110260;28;20059;-79
2021/07/05 06:23:45;;;;;;;3.58;2.35;;;16.70;89.70;;;;;;5110546;28;20818;-79
2021/07/05 06:26:11;;;;;;;5.35;2.97;;;16.80;89.60;;;;;;5111067;28;20110;-78
2021/07/05 06:28:36;;;;;;;3.95;2.42;;;16.80;89.30;;;;;;5110173;28;20050;-79
2021/07/05 06:31:03;;;;;;;5.93;2.75;;;16.90;89.30;;;;;;5094151;28;20031;-79
2021/07/05 06:33:30;;;;;;;4.72;3.10;;;17.00;89.30;;;;;;5112343;28;20096;-79
2021/07/05 06:35:56;;;;;;;7.00;3.80;;;17.00;88.80;;;;;;5112127;28;20055;-80
2021/07/05 06:38:22;;;;;;;4.28;2.40;;;17.00;88.40;;;;;;5111190;28;20028;-79
2021/07/05 06:40:50;;;;;;;3.05;2.33;;;16.90;88.20;;;;;;5110123;28;20040;-79
2021/07/05 06:43:16;;;;;;;6.75;3.13;;;17.00;88.60;;;;;;5093640;28;20044;-79
2021/07/05 06:45:42;;;;;;;7.38;3.75;;;17.10;88.80;;;;;;5076607;28;20023;-80
2021/07/05 06:48:08;;;;;;;6.03;2.42;;;17.20;88.50;;;;;;5112051;28;20031;-79
2021/07/05 06:50:35;;;;;;;5.88;2.78;;;17.30;88.20;;;;;;5110436;28;20039;-80
2021/07/05 06:53:00;;;;;;;4.78;2.45;;;17.40;87.90;;;;;;5110080;28;20081;-80
2021/07/05 06:55:26;;;;;;;6.22;2.50;;;17.50;87.80;;;;;;5110613;28;20028;-79
2021/07/05 06:57:52;;;;;;;4.60;2.25;;;17.60;87.40;;;;;;5093071;28;20479;-79
2021/07/05 07:00:21;;;;;;;5.75;2.65;;;17.60;87.40;;;;;;5110538;28;20055;-79
2021/07/05 07:02:47;;;;;;;5.68;2.60;;;17.70;87.40;;;;;;5110824;28;20020;-80
2021/07/05 07:05:15;;;;;;;5.72;2.25;;;17.60;87.10;;;;;;5111783;28;20482;-80
2021/07/05 07:07:44;;;;;;;4.47;2.15;;;17.60;87.30;;;;;;5110845;28;20486;-80
2021/07/05 07:10:10;;;;;;;3.33;2.17;;;17.70;87.10;;;;;;5111678;28;20076;-80
2021/07/05 07:12:37;;;;;;;4.75;2.08;;;17.70;87.30;;;;;;5111183;28;20593;-80
2021/07/05 07:15:08;;;;;;;7.28;2.53;;;17.80;87.10;;;;;;5109897;28;20525;-78
2021/07/05 07:17:39;;;;;;;5.55;2.40;;;17.80;86.90;;;;;;5111286;28;20027;-79
2021/07/05 07:20:10;;;;;;;5.50;1.80;;;17.80;86.50;;;;;;5093676;28;20034;-79
2021/07/05 07:22:37;;;;;;;6.20;1.80;;;17.90;86.70;;;;;;5111406;28;20044;-79
2021/07/05 07:25:05;;;;;;;4.13;2.10;;;18.10;86.60;;;;;;5092340;28;20028;-80
2021/07/05 07:27:30;;;;;;;6.95;2.40;;;18.10;85.80;;;;;;5109785;28;20464;-79
2021/07/05 07:29:56;;;;;;;5.50;1.75;;;18.20;85.70;;;;;;5109098;28;20023;-79
2021/07/05 07:32:22;;;;;;;5.13;2.22;;;18.30;85.70;;;;;;5109341;28;20039;-79
2021/07/05 07:34:47;;;;;;;6.72;1.85;;;18.60;85.60;;;;;;5092268;28;20067;-79
2021/07/05 07:37:13;;;;;;;5.03;1.58;;;18.80;85.30;;;;;;5076106;28;20028;-79
2021/07/05 07:39:48;;;;;;;5.97;2.25;;;19.10;84.70;;;;;;5092863;28;20455;-79
2021/07/05 07:42:15;;;;;;;4.80;1.77;;;19.50;84.00;;;;;;5094031;28;20126;-80
2021/07/05 07:44:41;;;;;;;6.45;2.17;;;19.90;82.80;;;;;;5109921;28;20069;-79
2021/07/05 07:47:07;;;;;;;4.95;1.70;;;20.20;81.70;;;;;;5075575;28;20064;-81
2021/07/05 07:49:33;;;;;;;5.25;1.45;;;20.40;80.90;;;;;;5109754;28;20028;-80
2021/07/05 07:52:00;;;;;;;4.97;1.63;;;20.60;79.70;;;;;;5094928;28;20036;-79
2021/07/05 07:54:27;;;;;;;4.13;1.40;;;20.60;79.20;;;;;;5117551;28;20035;-79
2021/07/05 07:56:53;;;;;;;4.82;1.92;;;20.80;78.50;;;;;;5116941;28;20046;-80
2021/07/05 07:59:19;;;;;;;4.80;1.35;;;21.10;77.70;;;;;;5081936;28;20119;-80
2021/07/05 08:01:45;;;;;;;4.68;1.42;;;21.40;76.40;;;;;;5109254;28;20487;-79
2021/07/05 08:04:11;;;;;;;3.67;1.50;;;21.50;75.60;;;;;;5109388;28;20051;-81
2021/07/05 08:06:37;;;;;;;5.65;1.35;;;21.50;75.50;;;;;;5109668;28;20375;-80
2021/07/05 08:09:04;;;;;;;4.97;1.45;;;21.60;75.10;;;;;;5108826;28;20019;-80
2021/07/05 08:11:31;;;;;;;3.95;1.20;;;21.60;74.70;;;;;;5109123;28;20043;-80
2021/07/05 08:13:58;;;;;;;5.22;1.45;;;21.60;74.40;;;;;;5110072;28;20031;-80
2021/07/05 08:16:24;;;;;;;3.33;1.30;;;21.70;74.20;;;;;;5109736;28;20555;-81
2021/07/05 08:18:50;;;;;;;5.70;1.38;;;21.60;74.00;;;;;;5109399;28;20118;-79
2021/07/05 08:21:16;;;;;;;4.95;1.33;;;21.50;74.40;;;;;;5079412;28;20104;-81
2021/07/05 08:23:41;;;;;;;8.07;1.63;;;21.50;74.20;;;;;;5116480;28;20092;-82
2021/07/05 08:26:07;;;;;;;5.47;1.60;;;21.70;74.30;;;;;;5113275;28;20676;-82
2021/07/05 08:28:33;;;;;;;6.90;1.60;;;21.80;73.80;;;;;;5112499;28;20039;-82
2021/07/05 08:31:01;;;;;;;4.75;1.35;;;21.70;73.00;;;;;;5109003;28;20035;-81
2021/07/05 08:33:27;;;;;;;9.20;1.65;;;21.60;73.20;;;;;;5109883;28;20085;-82
2021/07/05 08:35:53;;;;;;;6.43;1.40;;;21.60;72.70;;;;;;5110207;28;20023;-80
2021/07/05 08:38:19;;;;;;;5.07;1.70;;;21.50;72.80;;;;;;5097832;28;20467;-81
2021/07/05 08:40:45;;;;;;;4.65;1.52;;;21.60;73.10;;;;;;5113191;28;20100;-82
2021/07/05 08:43:11;;;;;;;7.53;1.33;;;21.70;73.60;;;;;;5093502;28;20142;-81
2021/07/05 08:45:39;;;;;;;3.67;1.35;;;21.80;73.20;;;;;;5115006;28;20062;-81
2021/07/05 08:48:07;;;;;;;6.68;1.73;;;22.00;72.90;;;;;;5112982;28;20032;-82
2021/07/05 08:50:32;;;;;;;2.97;1.30;;;22.40;72.60;;;;;;5113215;28;20084;-81
2021/07/05 08:52:58;;;;;;;4.13;1.17;;;22.70;71.70;;;;;;5096326;28;20118;-82
2021/07/05 08:55:29;;;;;;;9.02;1.95;;;23.10;71.30;;;;;;5115244;28;20467;-82
2021/07/05 08:57:55;;;;;;;5.18;1.50;;;23.30;70.20;;;;;;5119676;28;20019;-79
2021/07/05 09:00:24;;;;;;;5.80;1.38;;;23.30;69.60;;;;;;5101962;28;20043;-80
2021/07/05 09:02:50;;;;;;;5.15;1.42;;;23.20;69.10;;;;;;5106521;28;20456;-82
2021/07/05 09:05:16;;;;;;;2.97;1.00;;;23.00;69.20;;;;;;5099576;28;20834;-81
2021/07/05 09:08:04;;;;;;;5.43;1.30;;;22.90;69.40;;;;;;5080160;28;20035;-83
2021/07/05 09:10:52;;;;;;;4.88;1.30;;;22.70;69.60;;;;;;5110710;28;20036;-81
2021/07/05 09:13:25;;;;;;;5.70;1.40;;;22.60;69.70;;;;;;5092546;28;20016;-81
2021/07/05 09:15:57;;;;;;;3.28;1.00;;;22.30;69.60;;;;;;5092875;28;20103;-83
2021/07/05 09:18:30;;;;;;;3.10;1.10;;;22.10;70.30;;;;;;5094100;28;20024;-82
2021/07/05 09:21:17;;;;;;;4.18;1.20;;;22.00;70.90;;;;;;5091570;28;20036;-82
2021/07/05 09:24:04;;;;;;;4.68;1.27;;;21.90;70.60;;;;;;5091771;28;20032;-83
2021/07/05 09:26:39;;;;;;;5.45;1.15;;;21.90;71.20;;;;;;5092761;28;20044;-81
2021/07/05 09:29:16;;;;;;;3.95;1.00;;;21.70;72.20;;;;;;5092519;28;20028;-81
2021/07/05 09:31:47;;;;;;;6.70;1.60;;;21.40;72.90;;;;;;5108964;28;20376;-80
2021/07/05 09:34:23;;;;;;;5.55;1.75;;;21.10;73.70;;;;;;5092677;28;20484;-82
2021/07/05 09:36:53;;;;;;;3.58;1.92;;;20.70;74.50;;;;;;5109088;28;20051;-78
2021/07/05 09:39:21;;;;;;;4.70;1.58;;;20.50;76.00;;;;;;5090935;28;20471;-78
2021/07/05 09:41:49;;;;;;;4.13;1.58;;;20.20;76.70;;;;;;5091737;28;20052;-79
2021/07/05 09:44:18;;;;;;;6.57;1.45;;;19.90;77.80;;;;;;5090888;28;20032;-79
2021/07/05 09:46:48;;;;;;;3.53;1.10;;;19.80;78.00;;;;;;5091728;28;20111;-79
2021/07/05 09:49:25;;;;;;;3.70;1.42;;;19.80;78.00;;;;;;5107825;28;20052;-80
2021/07/05 09:52:10;;;;;;;5.90;1.50;;;19.90;78.30;;;;;;5093138;28;20024;-80
2021/07/05 09:54:38;;;;;;;3.15;1.42;;;20.20;78.30;;;;;;5091443;28;20036;-80
2021/07/05 09:57:06;;;;;;;3.95;1.45;;;20.60;78.20;;;;;;5091014;28;20019;-80
2021/07/05 09:59:40;;;;;;;2.22;0.90;;;21.10;77.30;;;;;;5091325;28;20035;-82
2021/07/05 10:02:09;;;;;;;2.88;0.75;;;21.70;75.60;;;;;;5090946;28;20043;-81
2021/07/05 10:04:38;;;;;;;3.53;1.05;;;22.00;73.90;;;;;;5091468;28;20526;-81
2021/07/05 10:07:05;;;;;;;2.17;0.80;;;22.30;73.20;;;;;;5090954;28;20028;-81
2021/07/05 10:09:38;;;;;;;3.03;0.77;;;22.40;72.50;;;;;;5074220;28;21055;-81
2021/07/05 10:12:30;;;;;;;1.90;0.50;;;22.50;72.20;;;;;;5090725;28;20032;-81
2021/07/05 10:15:06;;;;;;;1.60;0.57;;;22.70;71.70;;;;;;5091028;28;20115;-81
2021/07/05 10:17:36;;;;;;;2.17;0.68;;;23.00;71.10;;;;;;5092535;28;20039;-82
2021/07/05 10:20:07;;;;;;;1.63;0.50;;;23.40;70.60;;;;;;5091083;28;20052;-81
2021/07/05 10:22:32;;;;;;;1.20;0.40;;;23.80;69.50;;;;;;5090902;28;20060;-82
2021/07/05 10:24:59;;;;;;;2.90;0.55;;;24.10;68.20;;;;;;5090648;28;20476;-81
2021/07/05 10:27:26;;;;;;;1.23;0.40;;;24.30;67.00;;;;;;5091789;28;20028;-82
2021/07/05 10:29:52;;;;;;;3.13;0.40;;;24.40;66.70;;;;;;5074029;28;20035;-81
2021/07/05 10:32:19;;;;;;;1.63;0.40;;;24.40;65.40;;;;;;5106960;28;20387;-79
2021/07/05 10:34:51;;;;;;;1.73;0.50;;;24.20;64.10;;;;;;5091775;28;20032;-80
2021/07/05 10:37:26;;;;;;;2.55;0.45;;;24.50;66.10;;;;;;5091303;28;20031;-81
2021/07/05 10:39:52;;;;;;;1.88;0.55;;;24.70;65.40;;;;;;5091783;28;20456;-82
2021/07/05 10:42:37;;;;;;;1.00;0.40;;;24.90;63.70;;;;;;5089628;28;20546;-81
2021/07/05 10:45:12;;;;;;;1.52;0.50;;;25.00;62.00;;;;;;5091971;28;20024;-83
2021/07/05 10:47:54;;;;;;;1.83;0.63;;;25.40;63.60;;;;;;5090529;28;20020;-81
2021/07/05 10:50:36;;;;;;;3.55;0.70;;;25.80;62.80;;;;;;5091221;28;20470;-82
2021/07/05 10:53:02;;;;;;;2.13;0.85;;;25.60;57.30;;;;;;5107984;28;20032;-84
2021/07/05 10:55:47;;;;;;;2.33;0.80;;;25.00;59.40;;;;;;5089723;28;20096;-82
2021/07/05 10:58:19;;;;;;;3.95;1.20;;;24.50;60.50;;;;;;5089692;28;20395;-80
2021/07/05 11:00:53;;;;;;;2.90;0.90;;;24.30;60.00;;;;;;5090384;28;20417;-81
2021/07/05 11:03:40;;;;;;;3.22;0.80;;;24.10;62.60;;;;;;5089353;28;20480;-82
2021/07/05 11:06:10;;;;;;;3.65;0.95;;;24.20;64.10;;;;;;5106830;28;20020;-84
2021/07/05 11:08:44;;;;;;;4.20;0.80;;;24.20;63.80;;;;;;5091060;28;20027;-83
2021/07/05 11:11:19;;;;;;;2.65;0.90;;;24.00;61.00;;;;;;5079313;28;20100;-84
2021/07/05 11:13:46;;;;;;;2.75;0.60;;;23.60;60.50;;;;;;5097994;28;20019;-83
2021/07/05 11:16:12;;;;;;;3.50;0.77;;;23.30;61.60;;;;;;5096145;28;20025;-80
2021/07/05 11:18:45;;;;;;;3.22;1.02;;;23.20;61.70;;;;;;5094862;28;20473;-84
2021/07/05 11:21:43;;;;;;;3.90;0.68;;;22.80;61.50;;;;;;5096621;28;20035;-84
2021/07/05 11:24:09;;;;;;;2.78;0.55;;;22.30;62.10;;;;;;5084628;28;20170;-84
2021/07/05 11:26:37;;;;;;;4.70;0.90;;;22.10;63.20;;;;;;5090600;28;20087;-84
2021/07/05 11:29:15;;;;;;;4.65;0.90;;;21.90;63.70;;;;;;5089936;28;20081;-83
2021/07/05 11:32:07;;;;;;;3.90;0.82;;;21.80;63.40;;;;;;5106685;28;20035;-84
2021/07/05 11:34:38;;;;;;;3.95;0.90;;;21.60;64.70;;;;;;5086311;28;20044;-86
2021/07/05 11:37:23;;;;;;;3.22;1.00;;;21.30;65.10;;;;;;5091497;28;20032;-83
2021/07/05 11:39:52;;;;;;;4.43;1.00;;;21.00;65.90;;;;;;5107073;28;20032;-86
2021/07/05 11:42:33;;;;;;;5.30;1.17;;;20.90;66.90;;;;;;5091226;28;20085;-82
2021/07/05 11:44:59;;;;;;;3.67;0.90;;;20.90;66.80;;;;;;5092028;28;20061;-86
2021/07/05 11:47:37;;;;;;;5.22;0.90;;;21.00;68.30;;;;;;5106304;28;20055;-84
2021/07/05 11:50:14;;;;;;;3.10;1.00;;;21.30;68.20;;;;;;5092168;28;20024;-86
2021/07/05 11:53:04;;;;;;;3.72;1.08;;;21.40;67.00;;;;;;5090827;28;20031;-84
2021/07/05 11:55:32;;;;;;;3.83;1.17;;;21.70;66.40;;;;;;5081764;28;20380;-87
2021/07/05 11:58:02;;;;;;;3.42;1.08;;;21.90;66.80;;;;;;5091315;28;20028;-85
2021/07/05 12:00:31;;;;;;;4.70;1.20;;;22.30;65.20;;;;;;5072424;28;20020;-86
2021/07/05 12:03:15;;;;;;;4.47;1.10;;;22.40;64.00;;;;;;5091237;28;20036;-86
2021/07/05 12:05:44;;;;;;;2.88;0.80;;;22.50;63.90;;;;;;5072311;28;20024;-86
2021/07/05 12:08:14;;;;;;;4.65;1.27;;;22.60;64.90;;;;;;5089974;28;20032;-86
2021/07/05 12:10:43;;;;;;;3.05;1.10;;;22.70;65.20;;;;;;5073435;28;20128;-87
2021/07/05 12:13:21;;;;;;;3.35;0.95;;;22.60;64.70;;;;;;5090473;28;20024;-86
2021/07/05 12:15:55;;;;;;;2.38;1.25;;;22.40;66.00;;;;;;5089420;28;20024;-86
2021/07/05 12:18:20;;;;;;;3.88;1.10;;;22.40;66.60;;;;;;5091611;28;20035;-84
2021/07/05 12:20:58;;;;;;;3.13;1.10;;;22.20;66.20;;;;;;5076181;28;20044;-86
2021/07/05 12:23:34;;;;;;;2.60;1.20;;;22.10;66.80;;;;;;5094893;28;20031;-80
2021/07/05 12:26:20;;;;;;;4.72;1.65;;;22.00;67.70;;;;;;5110712;28;20387;-85
2021/07/05 12:29:16;;;;;;;4.07;1.73;;;22.00;68.40;;;;;;5094154;28;20051;-86
2021/07/05 12:32:11;;;;;;;6.13;1.83;;;22.00;68.70;;;;;;5092336;28;20476;-86
2021/07/05 12:34:45;;;;;;;3.58;1.63;;;22.10;68.50;;;;;;5094119;28;20107;-86
2021/07/05 12:37:12;;;;;;;4.90;1.35;;;22.20;67.40;;;;;;5110462;28;20081;-86
2021/07/05 12:39:51;;;;;;;3.60;1.23;;;22.20;66.20;;;;;;5093589;28;20035;-85
2021/07/05 12:42:23;;;;;;;4.55;1.25;;;22.30;66.40;;;;;;5094641;28;20061;-85
2021/07/05 12:44:49;;;;;;;3.47;1.23;;;22.50;66.30;;;;;;5092837;28;20024;-85
2021/07/05 12:47:14;;;;;;;2.55;0.93;;;22.60;65.40;;;;;;5095101;28;20016;-84
2021/07/05 12:49:41;;;;;;;4.97;1.00;;;22.70;66.60;;;;;;5092141;28;20063;-86
2021/07/05 12:52:09;;;;;;;3.85;1.10;;;23.00;67.60;;;;;;5094963;28;20127;-86
2021/07/05 12:54:38;;;;;;;3.97;1.52;;;23.10;66.40;;;;;;5110273;28;20027;-87